sensor_id;sensor_type;location;lat;lon;timestamp;P1;durP1;ratioP1;P2;durP2;ratioP2
32445;SDS011;18899;50.748;7.102;2024-03-08T00:00:32;26.98;;;15.10;;
32445;SDS011;18899;50.748;7.102;2024-03-08T00:02:58;33.78;;;14.52;;
32445;SDS011;18899;50.748;7.102;2024-03-08T00:05:26;35.45;;;15.63;;
32445;SDS011;18899;50.748;7.102;2024-03-08T00:07:51;29.08;;;15.05;;
32445;SDS011;18899;50.748;7.102;2024-03-08T00:10:18;31.65;;;14.40;;
32445;SDS011;18899;50.748;7.102;2024-03-08T00:12:45;27.27;;;15.38;;
32445;SDS011;18899;50.748;7.102;2024-03-08T00:15:12;34.60;;;15.85;;
32445;SDS011;18899;50.748;7.102;2024-03-08T00:17:39;30.38;;;16.13;;
32445;SDS011;18899;50.748;7.102;2024-03-08T00:20:05;35.55;;;16.30;;
32445;SDS011;18899;50.748;7.102;2024-03-08T00:22:34;32.13;;;15.77;;
32445;SDS011;18899;50.748;7.102;2024-03-08T00:24:59;36.42;;;15.43;;
32445;SDS011;18899;50.748;7.102;2024-03-08T00:27:25;29.85;;;15.27;;
32445;SDS011;18899;50.748;7.102;2024-03-08T00:29:50;42.28;;;16.50;;
32445;SDS011;18899;50.748;7.102;2024-03-08T00:32:17;28.58;;;15.63;;
32445;SDS011;18899;50.748;7.102;2024-03-08T00:34:42;31.50;;;15.38;;
32445;SDS011;18899;50.748;7.102;2024-03-08T00:37:08;31.50;;;16.38;;
32445;SDS011;18899;50.748;7.102;2024-03-08T00:39:33;30.30;;;15.63;;
32445;SDS011;18899;50.748;7.102;2024-03-08T00:41:59;29.83;;;16.08;;
32445;SDS011;18899;50.748;7.102;2024-03-08T00:44:24;33.55;;;16.35;;
32445;SDS011;18899;50.748;7.102;2024-03-08T00:46:50;32.95;;;17.08;;
32445;SDS011;18899;50.748;7.102;2024-03-08T00:49:16;29.48;;;16.05;;
32445;SDS011;18899;50.748;7.102;2024-03-08T00:51:41;33.63;;;15.80;;
32445;SDS011;18899;50.748;7.102;2024-03-08T00:54:08;34.08;;;16.70;;
32445;SDS011;18899;50.748;7.102;2024-03-08T00:56:34;31.90;;;16.25;;
32445;SDS011;18899;50.748;7.102;2024-03-08T00:59:00;33.45;;;16.10;;
32445;SDS011;18899;50.748;7.102;2024-03-08T01:01:27;31.90;;;16.30;;
32445;SDS011;18899;50.748;7.102;2024-03-08T01:03:53;32.70;;;16.45;;
32445;SDS011;18899;50.748;7.102;2024-03-08T01:06:18;34.78;;;17.30;;
32445;SDS011;18899;50.748;7.102;2024-03-08T01:08:44;30.40;;;16.42;;
32445;SDS011;18899;50.748;7.102;2024-03-08T01:11:10;34.55;;;18.42;;
32445;SDS011;18899;50.748;7.102;2024-03-08T01:13:38;34.95;;;17.02;;
32445;SDS011;18899;50.748;7.102;2024-03-08T01:16:04;36.53;;;17.10;;
32445;SDS011;18899;50.748;7.102;2024-03-08T01:18:30;42.28;;;18.15;;
32445;SDS011;18899;50.748;7.102;2024-03-08T01:20:55;33.92;;;16.67;;
32445;SDS011;18899;50.748;7.102;2024-03-08T01:23:22;41.45;;;18.70;;
32445;SDS011;18899;50.748;7.102;2024-03-08T01:25:47;38.42;;;18.02;;
32445;SDS011;18899;50.748;7.102;2024-03-08T01:28:17;32.45;;;16.33;;
32445;SDS011;18899;50.748;7.102;2024-03-08T01:30:42;38.28;;;17.13;;
32445;SDS011;18899;50.748;7.102;2024-03-08T01:33:08;38.88;;;17.38;;
32445;SDS011;18899;50.748;7.102;2024-03-08T01:35:33;35.78;;;16.65;;
32445;SDS011;18899;50.748;7.102;2024-03-08T01:37:59;38.03;;;16.50;;
32445;SDS011;18899;50.748;7.102;2024-03-08T01:40:24;37.65;;;17.70;;
32445;SDS011;18899;50.748;7.102;2024-03-08T01:42:50;37.00;;;16.35;;
32445;SDS011;18899;50.748;7.102;2024-03-08T01:45:16;35.60;;;16.52;;
32445;SDS011;18899;50.748;7.102;2024-03-08T01:47:41;39.45;;;17.05;;
32445;SDS011;18899;50.748;7.102;2024-03-08T01:50:07;36.35;;;17.52;;
32445;SDS011;18899;50.748;7.102;2024-03-08T01:52:33;35.60;;;16.40;;
32445;SDS011;18899;50.748;7.102;2024-03-08T01:55:00;33.78;;;17.48;;
32445;SDS011;18899;50.748;7.102;2024-03-08T01:57:28;34.13;;;16.38;;
32445;SDS011;18899;50.748;7.102;2024-03-08T01:59:58;35.85;;;16.63;;
32445;SDS011;18899;50.748;7.102;2024-03-08T02:02:29;26.83;;;12.43;;
32445;SDS011;18899;50.748;7.102;2024-03-08T02:05:00;36.05;;;17.55;;
32445;SDS011;18899;50.748;7.102;2024-03-08T02:07:26;37.22;;;17.50;;
32445;SDS011;18899;50.748;7.102;2024-03-08T02:09:51;35.15;;;16.67;;
32445;SDS011;18899;50.748;7.102;2024-03-08T02:12:17;33.17;;;16.10;;
32445;SDS011;18899;50.748;7.102;2024-03-08T02:14:45;35.72;;;16.10;;
32445;SDS011;18899;50.748;7.102;2024-03-08T02:17:11;32.63;;;16.48;;
32445;SDS011;18899;50.748;7.102;2024-03-08T02:19:37;34.55;;;15.95;;
32445;SDS011;18899;50.748;7.102;2024-03-08T02:22:03;38.17;;;18.08;;
32445;SDS011;18899;50.748;7.102;2024-03-08T02:24:29;38.20;;;17.58;;
32445;SDS011;18899;50.748;7.102;2024-03-08T02:26:55;45.13;;;18.63;;
32445;SDS011;18899;50.748;7.102;2024-03-08T02:29:21;37.42;;;18.08;;
32445;SDS011;18899;50.748;7.102;2024-03-08T02:31:50;34.88;;;17.55;;
32445;SDS011;18899;50.748;7.102;2024-03-08T02:34:16;44.70;;;17.52;;
32445;SDS011;18899;50.748;7.102;2024-03-08T02:36:41;37.65;;;17.88;;
32445;SDS011;18899;50.748;7.102;2024-03-08T02:39:07;37.17;;;17.58;;
32445;SDS011;18899;50.748;7.102;2024-03-08T02:41:32;38.90;;;16.90;;
32445;SDS011;18899;50.748;7.102;2024-03-08T02:43:58;48.58;;;18.65;;
32445;SDS011;18899;50.748;7.102;2024-03-08T02:46:24;46.65;;;18.13;;
32445;SDS011;18899;50.748;7.102;2024-03-08T02:48:50;35.72;;;17.30;;
32445;SDS011;18899;50.748;7.102;2024-03-08T02:51:15;37.95;;;15.77;;
32445;SDS011;18899;50.748;7.102;2024-03-08T02:53:41;37.65;;;17.23;;
32445;SDS011;18899;50.748;7.102;2024-03-08T02:56:08;39.72;;;18.02;;
32445;SDS011;18899;50.748;7.102;2024-03-08T02:58:37;33.95;;;17.27;;
32445;SDS011;18899;50.748;7.102;2024-03-08T03:01:03;36.38;;;17.50;;
32445;SDS011;18899;50.748;7.102;2024-03-08T03:03:29;33.78;;;16.58;;
32445;SDS011;18899;50.748;7.102;2024-03-08T03:05:54;37.95;;;16.88;;
32445;SDS011;18899;50.748;7.102;2024-03-08T03:08:22;38.47;;;16.08;;
32445;SDS011;18899;50.748;7.102;2024-03-08T03:10:48;37.38;;;16.67;;
32445;SDS011;18899;50.748;7.102;2024-03-08T03:13:14;33.05;;;16.25;;
32445;SDS011;18899;50.748;7.102;2024-03-08T03:15:40;32.47;;;16.05;;
32445;SDS011;18899;50.748;7.102;2024-03-08T03:18:08;39.72;;;17.70;;
32445;SDS011;18899;50.748;7.102;2024-03-08T03:20:34;38.10;;;17.25;;
32445;SDS011;18899;50.748;7.102;2024-03-08T03:23:05;39.42;;;17.75;;
32445;SDS011;18899;50.748;7.102;2024-03-08T03:25:33;32.70;;;17.25;;
32445;SDS011;18899;50.748;7.102;2024-03-08T03:28:00;39.67;;;18.27;;
32445;SDS011;18899;50.748;7.102;2024-03-08T03:30:29;38.83;;;17.02;;
32445;SDS011;18899;50.748;7.102;2024-03-08T03:32:58;42.65;;;17.77;;
32445;SDS011;18899;50.748;7.102;2024-03-08T03:35:25;35.45;;;16.25;;
32445;SDS011;18899;50.748;7.102;2024-03-08T03:37:52;41.45;;;16.48;;
32445;SDS011;18899;50.748;7.102;2024-03-08T03:40:31;38.17;;;16.90;;
32445;SDS011;18899;50.748;7.102;2024-03-08T03:42:57;35.20;;;16.90;;
32445;SDS011;18899;50.748;7.102;2024-03-08T03:45:23;34.00;;;17.20;;
32445;SDS011;18899;50.748;7.102;2024-03-08T03:47:49;37.97;;;16.88;;
32445;SDS011;18899;50.748;7.102;2024-03-08T03:50:16;38.65;;;17.42;;
32445;SDS011;18899;50.748;7.102;2024-03-08T03:52:48;45.38;;;19.05;;
32445;SDS011;18899;50.748;7.102;2024-03-08T03:55:14;41.03;;;18.30;;
32445;SDS011;18899;50.748;7.102;2024-03-08T03:57:40;40.00;;;17.05;;
32445;SDS011;18899;50.748;7.102;2024-03-08T04:00:06;38.67;;;18.35;;
32445;SDS011;18899;50.748;7.102;2024-03-08T04:02:38;42.10;;;17.40;;
32445;SDS011;18899;50.748;7.102;2024-03-08T04:05:05;40.75;;;17.77;;
32445;SDS011;18899;50.748;7.102;2024-03-08T04:07:31;42.78;;;16.90;;
32445;SDS011;18899;50.748;7.102;2024-03-08T04:09:56;34.92;;;16.77;;
32445;SDS011;18899;50.748;7.102;2024-03-08T04:12:22;37.58;;;16.92;;
32445;SDS011;18899;50.748;7.102;2024-03-08T04:14:48;39.00;;;17.60;;
32445;SDS011;18899;50.748;7.102;2024-03-08T04:17:13;35.60;;;16.50;;
32445;SDS011;18899;50.748;7.102;2024-03-08T04:19:39;42.72;;;17.38;;
32445;SDS011;18899;50.748;7.102;2024-03-08T04:22:05;41.92;;;18.02;;
32445;SDS011;18899;50.748;7.102;2024-03-08T04:24:32;32.15;;;15.82;;
32445;SDS011;18899;50.748;7.102;2024-03-08T04:26:58;39.03;;;17.98;;
32445;SDS011;18899;50.748;7.102;2024-03-08T04:29:23;37.88;;;17.48;;
32445;SDS011;18899;50.748;7.102;2024-03-08T04:31:49;38.55;;;17.77;;
32445;SDS011;18899;50.748;7.102;2024-03-08T04:34:19;48.88;;;17.88;;
32445;SDS011;18899;50.748;7.102;2024-03-08T04:36:50;38.00;;;17.95;;
32445;SDS011;18899;50.748;7.102;2024-03-08T04:39:15;37.45;;;18.30;;
32445;SDS011;18899;50.748;7.102;2024-03-08T04:41:41;37.28;;;18.17;;
32445;SDS011;18899;50.748;7.102;2024-03-08T04:44:09;43.45;;;19.45;;
32445;SDS011;18899;50.748;7.102;2024-03-08T04:46:36;43.17;;;19.40;;
32445;SDS011;18899;50.748;7.102;2024-03-08T04:49:01;46.83;;;18.73;;
32445;SDS011;18899;50.748;7.102;2024-03-08T04:51:27;40.33;;;18.83;;
32445;SDS011;18899;50.748;7.102;2024-03-08T04:53:52;41.25;;;19.13;;
32445;SDS011;18899;50.748;7.102;2024-03-08T04:56:18;45.25;;;19.63;;
32445;SDS011;18899;50.748;7.102;2024-03-08T04:58:44;41.75;;;18.23;;
32445;SDS011;18899;50.748;7.102;2024-03-08T05:01:11;40.75;;;17.48;;
32445;SDS011;18899;50.748;7.102;2024-03-08T05:03:37;39.80;;;17.77;;
32445;SDS011;18899;50.748;7.102;2024-03-08T05:06:03;41.45;;;17.20;;
32445;SDS011;18899;50.748;7.102;2024-03-08T05:08:29;43.65;;;19.05;;
32445;SDS011;18899;50.748;7.102;2024-03-08T05:10:55;42.63;;;17.83;;
32445;SDS011;18899;50.748;7.102;2024-03-08T05:13:21;44.60;;;18.70;;
32445;SDS011;18899;50.748;7.102;2024-03-08T05:15:48;48.35;;;19.48;;
32445;SDS011;18899;50.748;7.102;2024-03-08T05:18:15;39.78;;;17.42;;
32445;SDS011;18899;50.748;7.102;2024-03-08T05:20:40;35.17;;;16.65;;
32445;SDS011;18899;50.748;7.102;2024-03-08T05:23:06;46.75;;;18.23;;
32445;SDS011;18899;50.748;7.102;2024-03-08T05:25:33;41.55;;;17.80;;
32445;SDS011;18899;50.748;7.102;2024-03-08T05:27:58;39.22;;;17.98;;
32445;SDS011;18899;50.748;7.102;2024-03-08T05:30:24;41.00;;;18.30;;
32445;SDS011;18899;50.748;7.102;2024-03-08T05:32:49;35.17;;;16.63;;
32445;SDS011;18899;50.748;7.102;2024-03-08T05:35:15;34.50;;;15.25;;
32445;SDS011;18899;50.748;7.102;2024-03-08T05:37:41;38.33;;;17.13;;
32445;SDS011;18899;50.748;7.102;2024-03-08T05:40:07;40.70;;;18.00;;
32445;SDS011;18899;50.748;7.102;2024-03-08T05:42:36;48.97;;;16.88;;
32445;SDS011;18899;50.748;7.102;2024-03-08T05:45:02;41.08;;;15.15;;
32445;SDS011;18899;50.748;7.102;2024-03-08T05:47:28;35.60;;;16.42;;
32445;SDS011;18899;50.748;7.102;2024-03-08T05:49:54;36.42;;;17.30;;
32445;SDS011;18899;50.748;7.102;2024-03-08T05:52:19;32.95;;;16.27;;
32445;SDS011;18899;50.748;7.102;2024-03-08T05:54:45;39.83;;;17.85;;
32445;SDS011;18899;50.748;7.102;2024-03-08T05:57:12;40.15;;;17.95;;
32445;SDS011;18899;50.748;7.102;2024-03-08T05:59:38;38.22;;;18.30;;
32445;SDS011;18899;50.748;7.102;2024-03-08T06:02:04;35.72;;;16.35;;
32445;SDS011;18899;50.748;7.102;2024-03-08T06:04:30;36.28;;;17.67;;
32445;SDS011;18899;50.748;7.102;2024-03-08T06:06:56;41.15;;;16.45;;
32445;SDS011;18899;50.748;7.102;2024-03-08T06:09:23;44.78;;;18.30;;
32445;SDS011;18899;50.748;7.102;2024-03-08T06:11:49;35.53;;;16.88;;
32445;SDS011;18899;50.748;7.102;2024-03-08T06:14:15;41.15;;;18.38;;
32445;SDS011;18899;50.748;7.102;2024-03-08T06:16:43;35.42;;;16.77;;
32445;SDS011;18899;50.748;7.102;2024-03-08T06:19:09;40.03;;;19.13;;
32445;SDS011;18899;50.748;7.102;2024-03-08T06:21:35;45.50;;;18.60;;
32445;SDS011;18899;50.748;7.102;2024-03-08T06:24:01;38.42;;;18.00;;
32445;SDS011;18899;50.748;7.102;2024-03-08T06:26:26;40.00;;;18.65;;
32445;SDS011;18899;50.748;7.102;2024-03-08T06:28:55;39.78;;;18.20;;
32445;SDS011;18899;50.748;7.102;2024-03-08T06:31:21;39.65;;;18.52;;
32445;SDS011;18899;50.748;7.102;2024-03-08T06:33:47;39.78;;;19.02;;
32445;SDS011;18899;50.748;7.102;2024-03-08T06:36:15;38.28;;;18.73;;
32445;SDS011;18899;50.748;7.102;2024-03-08T06:38:43;36.97;;;16.45;;
32445;SDS011;18899;50.748;7.102;2024-03-08T06:41:12;40.53;;;16.90;;
32445;SDS011;18899;50.748;7.102;2024-03-08T06:43:44;34.25;;;16.90;;
32445;SDS011;18899;50.748;7.102;2024-03-08T06:46:11;36.60;;;17.33;;
32445;SDS011;18899;50.748;7.102;2024-03-08T06:48:38;35.92;;;17.50;;
32445;SDS011;18899;50.748;7.102;2024-03-08T06:51:04;35.22;;;17.77;;
32445;SDS011;18899;50.748;7.102;2024-03-08T06:53:30;34.72;;;15.90;;
32445;SDS011;18899;50.748;7.102;2024-03-08T06:55:56;31.83;;;16.60;;
32445;SDS011;18899;50.748;7.102;2024-03-08T06:58:22;31.98;;;15.95;;
32445;SDS011;18899;50.748;7.102;2024-03-08T07:00:48;32.35;;;15.23;;
32445;SDS011;18899;50.748;7.102;2024-03-08T07:03:17;31.80;;;14.95;;
32445;SDS011;18899;50.748;7.102;2024-03-08T07:05:43;32.55;;;15.40;;
32445;SDS011;18899;50.748;7.102;2024-03-08T07:08:08;29.23;;;15.93;;
32445;SDS011;18899;50.748;7.102;2024-03-08T07:10:34;31.90;;;15.75;;
32445;SDS011;18899;50.748;7.102;2024-03-08T07:13:00;29.77;;;14.70;;
32445;SDS011;18899;50.748;7.102;2024-03-08T07:15:29;26.98;;;14.30;;
32445;SDS011;18899;50.748;7.102;2024-03-08T07:17:54;29.48;;;15.52;;
32445;SDS011;18899;50.748;7.102;2024-03-08T07:20:20;27.70;;;15.20;;
32445;SDS011;18899;50.748;7.102;2024-03-08T07:22:47;27.30;;;14.75;;
32445;SDS011;18899;50.748;7.102;2024-03-08T07:25:13;32.08;;;15.38;;
32445;SDS011;18899;50.748;7.102;2024-03-08T07:27:48;27.58;;;15.27;;
32445;SDS011;18899;50.748;7.102;2024-03-08T07:30:16;28.63;;;15.35;;
32445;SDS011;18899;50.748;7.102;2024-03-08T07:33:00;30.77;;;16.15;;
32445;SDS011;18899;50.748;7.102;2024-03-08T07:35:27;29.40;;;16.40;;
32445;SDS011;18899;50.748;7.102;2024-03-08T07:37:53;29.30;;;15.07;;
32445;SDS011;18899;50.748;7.102;2024-03-08T07:40:22;28.20;;;15.13;;
32445;SDS011;18899;50.748;7.102;2024-03-08T07:42:48;26.35;;;15.70;;
32445;SDS011;18899;50.748;7.102;2024-03-08T07:45:15;27.25;;;15.35;;
32445;SDS011;18899;50.748;7.102;2024-03-08T07:47:41;30.80;;;16.10;;
32445;SDS011;18899;50.748;7.102;2024-03-08T07:50:07;29.58;;;15.23;;
32445;SDS011;18899;50.748;7.102;2024-03-08T07:52:36;31.85;;;15.82;;
32445;SDS011;18899;50.748;7.102;2024-03-08T07:55:02;24.70;;;14.68;;
32445;SDS011;18899;50.748;7.102;2024-03-08T07:57:28;27.77;;;14.65;;
32445;SDS011;18899;50.748;7.102;2024-03-08T07:59:54;28.38;;;15.07;;
32445;SDS011;18899;50.748;7.102;2024-03-08T08:02:20;26.98;;;15.98;;
32445;SDS011;18899;50.748;7.102;2024-03-08T08:04:46;27.10;;;14.98;;
32445;SDS011;18899;50.748;7.102;2024-03-08T08:07:11;29.52;;;14.80;;
32445;SDS011;18899;50.748;7.102;2024-03-08T08:09:37;25.20;;;15.65;;
32445;SDS011;18899;50.748;7.102;2024-03-08T08:12:02;28.92;;;16.23;;
32445;SDS011;18899;50.748;7.102;2024-03-08T08:14:29;27.88;;;15.85;;
32445;SDS011;18899;50.748;7.102;2024-03-08T08:16:54;24.80;;;14.80;;
32445;SDS011;18899;50.748;7.102;2024-03-08T08:19:22;26.52;;;14.27;;
32445;SDS011;18899;50.748;7.102;2024-03-08T08:21:48;31.20;;;15.93;;
32445;SDS011;18899;50.748;7.102;2024-03-08T08:24:13;25.95;;;13.18;;
32445;SDS011;18899;50.748;7.102;2024-03-08T08:26:39;27.25;;;13.20;;
32445;SDS011;18899;50.748;7.102;2024-03-08T08:29:05;28.30;;;12.45;;
32445;SDS011;18899;50.748;7.102;2024-03-08T08:31:32;25.40;;;12.60;;
32445;SDS011;18899;50.748;7.102;2024-03-08T08:33:58;23.20;;;12.77;;
32445;SDS011;18899;50.748;7.102;2024-03-08T08:36:24;28.05;;;14.50;;
32445;SDS011;18899;50.748;7.102;2024-03-08T08:38:50;25.60;;;12.02;;
32445;SDS011;18899;50.748;7.102;2024-03-08T08:41:16;22.38;;;12.77;;
32445;SDS011;18899;50.748;7.102;2024-03-08T08:43:42;24.50;;;11.65;;
32445;SDS011;18899;50.748;7.102;2024-03-08T08:46:11;20.55;;;12.00;;
32445;SDS011;18899;50.748;7.102;2024-03-08T08:48:39;21.17;;;10.93;;
32445;SDS011;18899;50.748;7.102;2024-03-08T08:51:10;24.40;;;11.43;;
32445;SDS011;18899;50.748;7.102;2024-03-08T08:53:39;24.27;;;13.27;;
32445;SDS011;18899;50.748;7.102;2024-03-08T08:56:11;22.90;;;12.95;;
32445;SDS011;18899;50.748;7.102;2024-03-08T08:58:38;28.15;;;14.60;;
32445;SDS011;18899;50.748;7.102;2024-03-08T09:01:07;20.95;;;11.82;;
32445;SDS011;18899;50.748;7.102;2024-03-08T09:03:34;21.83;;;12.45;;
32445;SDS011;18899;50.748;7.102;2024-03-08T09:06:02;26.48;;;12.95;;
32445;SDS011;18899;50.748;7.102;2024-03-08T09:08:34;21.92;;;11.30;;
32445;SDS011;18899;50.748;7.102;2024-03-08T09:11:01;22.98;;;13.23;;
32445;SDS011;18899;50.748;7.102;2024-03-08T09:13:27;21.88;;;12.18;;
32445;SDS011;18899;50.748;7.102;2024-03-08T09:15:52;24.45;;;12.25;;
32445;SDS011;18899;50.748;7.102;2024-03-08T09:18:18;20.65;;;11.85;;
32445;SDS011;18899;50.748;7.102;2024-03-08T09:20:44;21.48;;;11.60;;
32445;SDS011;18899;50.748;7.102;2024-03-08T09:23:09;19.85;;;11.25;;
32445;SDS011;18899;50.748;7.102;2024-03-08T09:25:35;19.92;;;10.98;;
32445;SDS011;18899;50.748;7.102;2024-03-08T09:28:00;20.23;;;11.05;;
32445;SDS011;18899;50.748;7.102;2024-03-08T09:30:26;17.45;;;9.35;;
32445;SDS011;18899;50.748;7.102;2024-03-08T09:32:52;18.23;;;10.07;;
32445;SDS011;18899;50.748;7.102;2024-03-08T09:35:17;18.02;;;9.40;;
32445;SDS011;18899;50.748;7.102;2024-03-08T09:37:43;20.30;;;9.40;;
32445;SDS011;18899;50.748;7.102;2024-03-08T09:40:08;19.00;;;10.10;;
32445;SDS011;18899;50.748;7.102;2024-03-08T09:42:37;20.17;;;9.95;;
32445;SDS011;18899;50.748;7.102;2024-03-08T09:45:08;16.65;;;7.88;;
32445;SDS011;18899;50.748;7.102;2024-03-08T09:47:40;20.08;;;9.80;;
32445;SDS011;18899;50.748;7.102;2024-03-08T09:50:07;15.07;;;8.07;;
32445;SDS011;18899;50.748;7.102;2024-03-08T09:52:35;19.40;;;10.10;;
32445;SDS011;18899;50.748;7.102;2024-03-08T09:55:05;19.15;;;10.68;;
32445;SDS011;18899;50.748;7.102;2024-03-08T09:57:35;18.88;;;10.70;;
32445;SDS011;18899;50.748;7.102;2024-03-08T10:00:01;19.80;;;10.20;;
32445;SDS011;18899;50.748;7.102;2024-03-08T10:02:32;21.15;;;9.57;;
32445;SDS011;18899;50.748;7.102;2024-03-08T10:04:59;20.50;;;10.13;;
32445;SDS011;18899;50.748;7.102;2024-03-08T10:07:28;20.33;;;9.77;;
32445;SDS011;18899;50.748;7.102;2024-03-08T10:09:54;18.30;;;10.50;;
32445;SDS011;18899;50.748;7.102;2024-03-08T10:12:19;17.42;;;10.63;;
32445;SDS011;18899;50.748;7.102;2024-03-08T10:14:45;16.52;;;8.90;;
32445;SDS011;18899;50.748;7.102;2024-03-08T10:17:11;17.73;;;9.60;;
32445;SDS011;18899;50.748;7.102;2024-03-08T10:19:37;16.65;;;9.63;;
32445;SDS011;18899;50.748;7.102;2024-03-08T10:22:03;17.08;;;9.75;;
32445;SDS011;18899;50.748;7.102;2024-03-08T10:24:31;15.75;;;9.27;;
32445;SDS011;18899;50.748;7.102;2024-03-08T10:26:59;16.75;;;9.23;;
32445;SDS011;18899;50.748;7.102;2024-03-08T10:29:26;17.73;;;9.95;;
32445;SDS011;18899;50.748;7.102;2024-03-08T10:31:53;17.45;;;9.73;;
32445;SDS011;18899;50.748;7.102;2024-03-08T10:34:20;15.63;;;9.75;;
32445;SDS011;18899;50.748;7.102;2024-03-08T10:36:48;17.15;;;9.32;;
32445;SDS011;18899;50.748;7.102;2024-03-08T10:39:23;18.50;;;9.70;;
32445;SDS011;18899;50.748;7.102;2024-03-08T10:41:53;18.88;;;10.13;;
32445;SDS011;18899;50.748;7.102;2024-03-08T10:49:51;22.50;;;11.10;;
32445;SDS011;18899;50.748;7.102;2024-03-08T10:52:22;21.27;;;10.23;;
32445;SDS011;18899;50.748;7.102;2024-03-08T10:54:48;23.48;;;11.38;;
32445;SDS011;18899;50.748;7.102;2024-03-08T10:57:17;28.25;;;9.80;;
32445;SDS011;18899;50.748;7.102;2024-03-08T10:59:45;18.88;;;9.35;;
32445;SDS011;18899;50.748;7.102;2024-03-08T11:02:15;16.45;;;7.47;;
32445;SDS011;18899;50.748;7.102;2024-03-08T11:04:46;19.17;;;10.30;;
32445;SDS011;18899;50.748;7.102;2024-03-08T11:07:14;19.30;;;10.40;;
32445;SDS011;18899;50.748;7.102;2024-03-08T11:09:43;20.10;;;10.55;;
32445;SDS011;18899;50.748;7.102;2024-03-08T11:14:55;19.55;;;9.57;;
32445;SDS011;18899;50.748;7.102;2024-03-08T11:19:55;18.52;;;9.50;;
32445;SDS011;18899;50.748;7.102;2024-03-08T11:22:22;20.05;;;10.85;;
32445;SDS011;18899;50.748;7.102;2024-03-08T11:24:49;16.98;;;7.97;;
32445;SDS011;18899;50.748;7.102;2024-03-08T11:27:14;19.33;;;9.60;;
32445;SDS011;18899;50.748;7.102;2024-03-08T11:29:40;23.42;;;10.43;;
32445;SDS011;18899;50.748;7.102;2024-03-08T11:32:10;14.90;;;5.50;;
32445;SDS011;18899;50.748;7.102;2024-03-08T11:34:45;22.00;;;9.27;;
32445;SDS011;18899;50.748;7.102;2024-03-08T11:37:13;15.68;;;7.30;;
32445;SDS011;18899;50.748;7.102;2024-03-08T11:39:40;16.42;;;8.02;;
32445;SDS011;18899;50.748;7.102;2024-03-08T11:44:36;12.60;;;5.55;;
32445;SDS011;18899;50.748;7.102;2024-03-08T11:47:02;17.45;;;9.00;;
32445;SDS011;18899;50.748;7.102;2024-03-08T11:49:33;12.57;;;6.47;;
32445;SDS011;18899;50.748;7.102;2024-03-08T11:51:58;15.77;;;8.07;;
32445;SDS011;18899;50.748;7.102;2024-03-08T11:54:24;18.08;;;9.27;;
32445;SDS011;18899;50.748;7.102;2024-03-08T11:56:51;16.92;;;9.02;;
32445;SDS011;18899;50.748;7.102;2024-03-08T11:59:17;15.18;;;8.38;;
32445;SDS011;18899;50.748;7.102;2024-03-08T12:01:43;15.70;;;8.30;;
32445;SDS011;18899;50.748;7.102;2024-03-08T12:04:13;17.65;;;8.65;;
32445;SDS011;18899;50.748;7.102;2024-03-08T12:06:39;17.67;;;8.43;;
32445;SDS011;18899;50.748;7.102;2024-03-08T12:09:09;11.82;;;6.03;;
32445;SDS011;18899;50.748;7.102;2024-03-08T12:11:35;18.92;;;8.02;;
32445;SDS011;18899;50.748;7.102;2024-03-08T12:14:02;18.30;;;9.43;;
32445;SDS011;18899;50.748;7.102;2024-03-08T12:16:28;19.20;;;9.00;;
32445;SDS011;18899;50.748;7.102;2024-03-08T12:18:54;15.85;;;7.63;;
32445;SDS011;18899;50.748;7.102;2024-03-08T12:21:20;16.50;;;7.13;;
32445;SDS011;18899;50.748;7.102;2024-03-08T12:23:51;17.23;;;8.55;;
32445;SDS011;18899;50.748;7.102;2024-03-08T12:26:34;13.90;;;7.07;;
32445;SDS011;18899;50.748;7.102;2024-03-08T12:31:51;15.18;;;7.80;;
32445;SDS011;18899;50.748;7.102;2024-03-08T12:34:18;17.90;;;8.82;;
32445;SDS011;18899;50.748;7.102;2024-03-08T12:36:47;15.73;;;7.90;;
32445;SDS011;18899;50.748;7.102;2024-03-08T12:39:18;14.75;;;8.38;;
32445;SDS011;18899;50.748;7.102;2024-03-08T12:41:47;14.10;;;7.90;;
32445;SDS011;18899;50.748;7.102;2024-03-08T12:44:14;15.90;;;8.77;;
32445;SDS011;18899;50.748;7.102;2024-03-08T12:46:40;16.63;;;8.07;;
32445;SDS011;18899;50.748;7.102;2024-03-08T12:49:08;16.85;;;9.13;;
32445;SDS011;18899;50.748;7.102;2024-03-08T12:51:37;15.73;;;8.70;;
32445;SDS011;18899;50.748;7.102;2024-03-08T12:54:04;14.00;;;7.70;;
32445;SDS011;18899;50.748;7.102;2024-03-08T12:56:32;17.58;;;8.55;;
32445;SDS011;18899;50.748;7.102;2024-03-08T12:58:59;14.30;;;7.80;;
32445;SDS011;18899;50.748;7.102;2024-03-08T13:01:26;14.77;;;8.27;;
32445;SDS011;18899;50.748;7.102;2024-03-08T13:03:52;17.13;;;7.40;;
32445;SDS011;18899;50.748;7.102;2024-03-08T13:06:18;14.82;;;7.40;;
32445;SDS011;18899;50.748;7.102;2024-03-08T13:08:46;16.70;;;8.35;;
32445;SDS011;18899;50.748;7.102;2024-03-08T13:11:13;18.30;;;8.55;;
32445;SDS011;18899;50.748;7.102;2024-03-08T13:13:42;18.52;;;9.07;;
32445;SDS011;18899;50.748;7.102;2024-03-08T13:16:07;13.18;;;6.95;;
32445;SDS011;18899;50.748;7.102;2024-03-08T13:18:34;20.88;;;7.47;;
32445;SDS011;18899;50.748;7.102;2024-03-08T13:21:00;16.30;;;8.25;;
32445;SDS011;18899;50.748;7.102;2024-03-08T13:23:31;12.70;;;7.22;;
32445;SDS011;18899;50.748;7.102;2024-03-08T13:25:57;14.80;;;7.35;;
32445;SDS011;18899;50.748;7.102;2024-03-08T13:28:22;15.13;;;7.72;;
32445;SDS011;18899;50.748;7.102;2024-03-08T13:30:53;14.85;;;8.00;;
32445;SDS011;18899;50.748;7.102;2024-03-08T13:33:18;15.13;;;7.28;;
32445;SDS011;18899;50.748;7.102;2024-03-08T13:35:45;14.88;;;8.27;;
32445;SDS011;18899;50.748;7.102;2024-03-08T13:38:11;14.50;;;8.23;;
32445;SDS011;18899;50.748;7.102;2024-03-08T13:40:38;17.15;;;8.90;;
32445;SDS011;18899;50.748;7.102;2024-03-08T13:43:05;17.20;;;8.80;;
32445;SDS011;18899;50.748;7.102;2024-03-08T13:45:32;15.80;;;8.45;;
32445;SDS011;18899;50.748;7.102;2024-03-08T13:47:58;14.18;;;7.53;;
32445;SDS011;18899;50.748;7.102;2024-03-08T13:50:24;12.35;;;6.05;;
32445;SDS011;18899;50.748;7.102;2024-03-08T13:52:51;16.75;;;7.78;;
32445;SDS011;18899;50.748;7.102;2024-03-08T13:55:18;19.13;;;7.68;;
32445;SDS011;18899;50.748;7.102;2024-03-08T13:57:44;15.40;;;6.10;;
32445;SDS011;18899;50.748;7.102;2024-03-08T14:00:11;15.40;;;6.85;;
32445;SDS011;18899;50.748;7.102;2024-03-08T14:02:37;12.75;;;7.38;;
32445;SDS011;18899;50.748;7.102;2024-03-08T14:05:06;19.95;;;9.60;;
32445;SDS011;18899;50.748;7.102;2024-03-08T14:07:34;15.55;;;9.05;;
32445;SDS011;18899;50.748;7.102;2024-03-08T14:10:00;20.13;;;8.00;;
32445;SDS011;18899;50.748;7.102;2024-03-08T14:12:25;14.35;;;7.13;;
32445;SDS011;18899;50.748;7.102;2024-03-08T14:14:51;13.23;;;6.88;;
32445;SDS011;18899;50.748;7.102;2024-03-08T14:17:24;12.63;;;7.13;;
32445;SDS011;18899;50.748;7.102;2024-03-08T14:19:51;15.77;;;6.60;;
32445;SDS011;18899;50.748;7.102;2024-03-08T14:22:17;19.23;;;7.88;;
32445;SDS011;18899;50.748;7.102;2024-03-08T14:24:43;14.05;;;6.95;;
32445;SDS011;18899;50.748;7.102;2024-03-08T14:27:09;14.10;;;7.50;;
32445;SDS011;18899;50.748;7.102;2024-03-08T14:29:37;16.35;;;5.22;;
32445;SDS011;18899;50.748;7.102;2024-03-08T14:32:03;13.70;;;7.25;;
32445;SDS011;18899;50.748;7.102;2024-03-08T14:34:31;15.55;;;8.25;;
32445;SDS011;18899;50.748;7.102;2024-03-08T14:36:59;14.15;;;7.82;;
32445;SDS011;18899;50.748;7.102;2024-03-08T14:39:26;16.13;;;7.63;;